sensor_id;sensor_type;location;lat;lon;timestamp;temperature;humidity
45044;DHT22;30784;48.490;9.688;2022-07-10T00:00:13;20.40;51.10
45044;DHT22;30784;48.490;9.688;2022-07-10T00:02:40;20.40;50.80
45044;DHT22;30784;48.490;9.688;2022-07-10T00:05:06;20.30;51.20
45044;DHT22;30784;48.490;9.688;2022-07-10T00:07:32;20.30;51.20
45044;DHT22;30784;48.490;9.688;2022-07-10T00:09:58;20.20;51.10
45044;DHT22;30784;48.490;9.688;2022-07-10T00:12:23;20.20;51.10
45044;DHT22;30784;48.490;9.688;2022-07-10T00:14:49;20.20;51.40
45044;DHT22;30784;48.490;9.688;2022-07-10T00:17:15;20.10;51.30
45044;DHT22;30784;48.490;9.688;2022-07-10T00:19:41;20.10;51.20
45044;DHT22;30784;48.490;9.688;2022-07-10T00:22:07;20.10;51.20
45044;DHT22;30784;48.490;9.688;2022-07-10T00:24:33;20.10;51.10
45044;DHT22;30784;48.490;9.688;2022-07-10T00:26:59;20.00;51.30
45044;DHT22;30784;48.490;9.688;2022-07-10T00:29:25;20.00;51.40
45044;DHT22;30784;48.490;9.688;2022-07-10T00:31:51;20.00;51.60
45044;DHT22;30784;48.490;9.688;2022-07-10T00:34:17;19.90;51.50
45044;DHT22;30784;48.490;9.688;2022-07-10T00:36:42;19.90;51.30
45044;DHT22;30784;48.490;9.688;2022-07-10T00:39:09;19.90;51.60
45044;DHT22;30784;48.490;9.688;2022-07-10T00:41:35;19.90;51.40
45044;DHT22;30784;48.490;9.688;2022-07-10T00:44:01;19.80;51.40
45044;DHT22;30784;48.490;9.688;2022-07-10T00:46:28;19.80;51.50
45044;DHT22;30784;48.490;9.688;2022-07-10T00:48:54;19.80;51.50
45044;DHT22;30784;48.490;9.688;2022-07-10T00:51:26;19.80;51.70
45044;DHT22;30784;48.490;9.688;2022-07-10T00:53:52;19.80;51.70
45044;DHT22;30784;48.490;9.688;2022-07-10T00:56:23;19.70;51.80
45044;DHT22;30784;48.490;9.688;2022-07-10T00:58:50;19.60;51.60
45044;DHT22;30784;48.490;9.688;2022-07-10T01:01:16;19.60;52.00
45044;DHT22;30784;48.490;9.688;2022-07-10T01:03:43;19.50;52.00
45044;DHT22;30784;48.490;9.688;2022-07-10T01:06:12;19.50;52.20
45044;DHT22;30784;48.490;9.688;2022-07-10T01:08:38;19.40;52.20
45044;DHT22;30784;48.490;9.688;2022-07-10T01:11:04;19.40;52.30
45044;DHT22;30784;48.490;9.688;2022-07-10T01:13:30;19.30;52.40
45044;DHT22;30784;48.490;9.688;2022-07-10T01:15:57;19.30;52.50
45044;DHT22;30784;48.490;9.688;2022-07-10T01:18:22;19.20;52.60
45044;DHT22;30784;48.490;9.688;2022-07-10T01:20:56;19.20;52.80
45044;DHT22;30784;48.490;9.688;2022-07-10T01:23:22;19.10;52.70
45044;DHT22;30784;48.490;9.688;2022-07-10T01:25:48;19.10;53.00
45044;DHT22;30784;48.490;9.688;2022-07-10T01:28:16;19.10;53.10
45044;DHT22;30784;48.490;9.688;2022-07-10T01:30:41;19.00;53.10
45044;DHT22;30784;48.490;9.688;2022-07-10T01:33:07;19.10;53.10
45044;DHT22;30784;48.490;9.688;2022-07-10T01:35:33;19.00;52.90
45044;DHT22;30784;48.490;9.688;2022-07-10T01:37:58;19.00;53.20
45044;DHT22;30784;48.490;9.688;2022-07-10T01:40:24;19.00;53.10
45044;DHT22;30784;48.490;9.688;2022-07-10T01:42:49;18.90;53.40
45044;DHT22;30784;48.490;9.688;2022-07-10T01:45:17;18.90;53.30
45044;DHT22;30784;48.490;9.688;2022-07-10T01:47:43;18.90;53.60
45044;DHT22;30784;48.490;9.688;2022-07-10T01:50:09;18.80;53.70
45044;DHT22;30784;48.490;9.688;2022-07-10T01:52:35;18.80;53.70
45044;DHT22;30784;48.490;9.688;2022-07-10T01:55:01;18.80;54.00
45044;DHT22;30784;48.490;9.688;2022-07-10T01:57:27;18.70;53.90
45044;DHT22;30784;48.490;9.688;2022-07-10T01:59:53;18.70;54.20
45044;DHT22;30784;48.490;9.688;2022-07-10T02:02:19;18.70;54.40
45044;DHT22;30784;48.490;9.688;2022-07-10T02:04:45;18.70;54.30
45044;DHT22;30784;48.490;9.688;2022-07-10T02:07:15;18.70;54.20
45044;DHT22;30784;48.490;9.688;2022-07-10T02:09:41;18.70;54.40
45044;DHT22;30784;48.490;9.688;2022-07-10T02:12:09;18.70;54.50
45044;DHT22;30784;48.490;9.688;2022-07-10T02:14:35;18.70;54.70
45044;DHT22;30784;48.490;9.688;2022-07-10T02:17:01;18.70;54.80
45044;DHT22;30784;48.490;9.688;2022-07-10T02:19:27;18.70;54.90
45044;DHT22;30784;48.490;9.688;2022-07-10T02:21:53;18.60;54.90
45044;DHT22;30784;48.490;9.688;2022-07-10T02:24:19;18.60;54.90
45044;DHT22;30784;48.490;9.688;2022-07-10T02:26:44;18.60;55.20
45044;DHT22;30784;48.490;9.688;2022-07-10T02:29:10;18.60;55.20
45044;DHT22;30784;48.490;9.688;2022-07-10T02:31:35;18.60;55.40
45044;DHT22;30784;48.490;9.688;2022-07-10T02:34:06;18.60;55.40
45044;DHT22;30784;48.490;9.688;2022-07-10T02:36:32;18.60;55.50
45044;DHT22;30784;48.490;9.688;2022-07-10T02:38:58;18.50;55.40
45044;DHT22;30784;48.490;9.688;2022-07-10T02:41:23;18.50;55.60
45044;DHT22;30784;48.490;9.688;2022-07-10T02:43:49;18.50;55.90
45044;DHT22;30784;48.490;9.688;2022-07-10T02:46:15;18.50;55.80
45044;DHT22;30784;48.490;9.688;2022-07-10T02:48:41;18.50;56.30
45044;DHT22;30784;48.490;9.688;2022-07-10T02:51:06;18.40;56.20
45044;DHT22;30784;48.490;9.688;2022-07-10T02:53:32;18.40;56.30
45044;DHT22;30784;48.490;9.688;2022-07-10T02:55:57;18.40;56.50
45044;DHT22;30784;48.490;9.688;2022-07-10T02:58:23;18.30;56.50
45044;DHT22;30784;48.490;9.688;2022-07-10T03:00:49;18.30;56.60
45044;DHT22;30784;48.490;9.688;2022-07-10T03:03:14;18.30;56.70
45044;DHT22;30784;48.490;9.688;2022-07-10T03:05:43;18.30;57.00
45044;DHT22;30784;48.490;9.688;2022-07-10T03:08:09;18.30;57.10
45044;DHT22;30784;48.490;9.688;2022-07-10T03:10:34;18.20;56.90
45044;DHT22;30784;48.490;9.688;2022-07-10T03:13:00;18.30;57.00
45044;DHT22;30784;48.490;9.688;2022-07-10T03:15:25;18.20;57.20
45044;DHT22;30784;48.490;9.688;2022-07-10T03:17:51;18.20;57.20
45044;DHT22;30784;48.490;9.688;2022-07-10T03:20:17;18.20;57.20
45044;DHT22;30784;48.490;9.688;2022-07-10T03:22:43;18.10;57.40
45044;DHT22;30784;48.490;9.688;2022-07-10T03:25:09;18.10;57.60
45044;DHT22;30784;48.490;9.688;2022-07-10T03:27:35;18.20;57.40
45044;DHT22;30784;48.490;9.688;2022-07-10T03:30:00;18.20;57.70
45044;DHT22;30784;48.490;9.688;2022-07-10T03:32:26;18.10;57.40
45044;DHT22;30784;48.490;9.688;2022-07-10T03:34:52;18.10;58.00
45044;DHT22;30784;48.490;9.688;2022-07-10T03:37:17;18.10;57.80
45044;DHT22;30784;48.490;9.688;2022-07-10T03:39:43;18.10;58.00
45044;DHT22;30784;48.490;9.688;2022-07-10T03:42:08;18.10;58.00
45044;DHT22;30784;48.490;9.688;2022-07-10T03:44:34;18.20;58.10
45044;DHT22;30784;48.490;9.688;2022-07-10T03:46:59;18.10;58.10
45044;DHT22;30784;48.490;9.688;2022-07-10T03:49:25;18.10;58.10
45044;DHT22;30784;48.490;9.688;2022-07-10T03:51:51;18.20;58.20
45044;DHT22;30784;48.490;9.688;2022-07-10T03:54:16;18.20;58.30
45044;DHT22;30784;48.490;9.688;2022-07-10T03:56:42;18.20;58.40
45044;DHT22;30784;48.490;9.688;2022-07-10T03:59:26;18.20;58.30
45044;DHT22;30784;48.490;9.688;2022-07-10T04:01:52;18.20;58.20
45044;DHT22;30784;48.490;9.688;2022-07-10T04:04:18;18.20;58.20
45044;DHT22;30784;48.490;9.688;2022-07-10T04:06:44;18.20;58.40
45044;DHT22;30784;48.490;9.688;2022-07-10T04:09:09;18.20;58.40
45044;DHT22;30784;48.490;9.688;2022-07-10T04:11:35;18.20;58.60
45044;DHT22;30784;48.490;9.688;2022-07-10T04:14:00;18.20;58.60
45044;DHT22;30784;48.490;9.688;2022-07-10T04:16:26;18.20;58.60
45044;DHT22;30784;48.490;9.688;2022-07-10T04:18:52;18.20;58.80
45044;DHT22;30784;48.490;9.688;2022-07-10T04:21:17;18.20;58.80
45044;DHT22;30784;48.490;9.688;2022-07-10T04:23:44;18.20;58.60
45044;DHT22;30784;48.490;9.688;2022-07-10T04:26:09;18.20;58.70
45044;DHT22;30784;48.490;9.688;2022-07-10T04:28:35;18.20;58.80
45044;DHT22;30784;48.490;9.688;2022-07-10T04:31:01;18.20;58.70
45044;DHT22;30784;48.490;9.688;2022-07-10T04:33:26;18.30;58.80
45044;DHT22;30784;48.490;9.688;2022-07-10T04:35:52;18.30;58.90
45044;DHT22;30784;48.490;9.688;2022-07-10T04:38:17;18.30;58.80
45044;DHT22;30784;48.490;9.688;2022-07-10T04:40:43;18.30;58.80
45044;DHT22;30784;48.490;9.688;2022-07-10T04:43:08;18.30;58.70
45044;DHT22;30784;48.490;9.688;2022-07-10T04:45:35;18.40;58.60
45044;DHT22;30784;48.490;9.688;2022-07-10T04:48:04;18.40;58.70
45044;DHT22;30784;48.490;9.688;2022-07-10T04:50:30;18.40;58.80
45044;DHT22;30784;48.490;9.688;2022-07-10T04:52:56;18.40;58.60
45044;DHT22;30784;48.490;9.688;2022-07-10T04:55:22;18.40;58.60
45044;DHT22;30784;48.490;9.688;2022-07-10T04:57:48;18.50;58.40
45044;DHT22;30784;48.490;9.688;2022-07-10T05:00:14;18.50;58.20
45044;DHT22;30784;48.490;9.688;2022-07-10T05:02:40;18.50;58.10
45044;DHT22;30784;48.490;9.688;2022-07-10T05:05:05;18.50;58.60
45044;DHT22;30784;48.490;9.688;2022-07-10T05:07:31;18.50;58.10
45044;DHT22;30784;48.490;9.688;2022-07-10T05:09:57;18.50;58.00
45044;DHT22;30784;48.490;9.688;2022-07-10T05:12:22;18.50;57.90
45044;DHT22;30784;48.490;9.688;2022-07-10T05:14:48;18.50;58.00
45044;DHT22;30784;48.490;9.688;2022-07-10T05:17:14;18.50;58.00
45044;DHT22;30784;48.490;9.688;2022-07-10T05:19:39;18.60;58.00
45044;DHT22;30784;48.490;9.688;2022-07-10T05:22:05;18.60;57.70
45044;DHT22;30784;48.490;9.688;2022-07-10T05:24:30;18.60;57.70
45044;DHT22;30784;48.490;9.688;2022-07-10T05:26:56;18.60;57.60
45044;DHT22;30784;48.490;9.688;2022-07-10T05:29:21;18.60;57.50
45044;DHT22;30784;48.490;9.688;2022-07-10T05:31:47;18.60;57.30
45044;DHT22;30784;48.490;9.688;2022-07-10T05:34:13;18.60;57.40
45044;DHT22;30784;48.490;9.688;2022-07-10T05:36:38;18.60;57.40
45044;DHT22;30784;48.490;9.688;2022-07-10T05:39:04;18.60;57.40
45044;DHT22;30784;48.490;9.688;2022-07-10T05:41:29;18.60;57.50
45044;DHT22;30784;48.490;9.688;2022-07-10T05:43:58;18.70;57.60
45044;DHT22;30784;48.490;9.688;2022-07-10T05:46:24;18.70;57.70
45044;DHT22;30784;48.490;9.688;2022-07-10T05:48:49;18.70;57.60
45044;DHT22;30784;48.490;9.688;2022-07-10T05:51:15;18.80;57.50
45044;DHT22;30784;48.490;9.688;2022-07-10T05:53:40;18.80;57.60
45044;DHT22;30784;48.490;9.688;2022-07-10T05:56:06;18.80;57.60
45044;DHT22;30784;48.490;9.688;2022-07-10T05:58:32;18.90;57.60
45044;DHT22;30784;48.490;9.688;2022-07-10T06:00:57;18.90;57.60
45044;DHT22;30784;48.490;9.688;2022-07-10T06:03:23;19.00;57.70
45044;DHT22;30784;48.490;9.688;2022-07-10T06:05:49;19.10;57.50
45044;DHT22;30784;48.490;9.688;2022-07-10T06:08:15;19.10;57.40
45044;DHT22;30784;48.490;9.688;2022-07-10T06:10:41;19.20;57.10
45044;DHT22;30784;48.490;9.688;2022-07-10T06:13:10;19.30;56.90
45044;DHT22;30784;48.490;9.688;2022-07-10T06:15:36;19.30;56.70
45044;DHT22;30784;48.490;9.688;2022-07-10T06:18:02;19.40;56.50
45044;DHT22;30784;48.490;9.688;2022-07-10T06:20:28;19.40;56.50
45044;DHT22;30784;48.490;9.688;2022-07-10T06:22:53;19.40;56.20
45044;DHT22;30784;48.490;9.688;2022-07-10T06:25:19;19.40;56.10
45044;DHT22;30784;48.490;9.688;2022-07-10T06:27:45;19.50;56.10
45044;DHT22;30784;48.490;9.688;2022-07-10T06:30:11;19.50;55.80
45044;DHT22;30784;48.490;9.688;2022-07-10T06:32:37;19.50;55.60
45044;DHT22;30784;48.490;9.688;2022-07-10T06:35:03;19.50;55.60
45044;DHT22;30784;48.490;9.688;2022-07-10T06:37:30;19.50;55.40
45044;DHT22;30784;48.490;9.688;2022-07-10T06:39:56;19.50;55.30
45044;DHT22;30784;48.490;9.688;2022-07-10T06:42:21;19.50;55.10
45044;DHT22;30784;48.490;9.688;2022-07-10T06:44:47;19.50;55.10
45044;DHT22;30784;48.490;9.688;2022-07-10T06:47:15;19.50;55.00
45044;DHT22;30784;48.490;9.688;2022-07-10T06:50:00;19.40;54.70
45044;DHT22;30784;48.490;9.688;2022-07-10T06:52:26;19.40;54.70
45044;DHT22;30784;48.490;9.688;2022-07-10T06:54:52;19.40;54.80
45044;DHT22;30784;48.490;9.688;2022-07-10T06:57:18;19.40;54.80
45044;DHT22;30784;48.490;9.688;2022-07-10T06:59:45;19.40;54.70
45044;DHT22;30784;48.490;9.688;2022-07-10T07:02:12;19.40;54.60
45044;DHT22;30784;48.490;9.688;2022-07-10T07:04:38;19.40;54.80
45044;DHT22;30784;48.490;9.688;2022-07-10T07:07:04;19.40;54.80
45044;DHT22;30784;48.490;9.688;2022-07-10T07:09:29;19.40;54.80
45044;DHT22;30784;48.490;9.688;2022-07-10T07:11:55;19.40;54.70
45044;DHT22;30784;48.490;9.688;2022-07-10T07:14:20;19.40;54.80
45044;DHT22;30784;48.490;9.688;2022-07-10T07:16:46;19.40;54.70
45044;DHT22;30784;48.490;9.688;2022-07-10T07:19:23;19.40;53.80
45044;DHT22;30784;48.490;9.688;2022-07-10T07:21:59;19.40;53.90
45044;DHT22;30784;48.490;9.688;2022-07-10T07:24:43;19.40;53.70
45044;DHT22;30784;48.490;9.688;2022-07-10T07:27:10;19.30;53.50
45044;DHT22;30784;48.490;9.688;2022-07-10T07:29:35;19.40;53.40
45044;DHT22;30784;48.490;9.688;2022-07-10T07:32:01;19.30;53.70
45044;DHT22;30784;48.490;9.688;2022-07-10T07:34:27;19.40;53.80
45044;DHT22;30784;48.490;9.688;2022-07-10T07:36:52;19.40;53.70
45044;DHT22;30784;48.490;9.688;2022-07-10T07:39:18;19.40;53.70
45044;DHT22;30784;48.490;9.688;2022-07-10T07:41:43;19.50;53.40
45044;DHT22;30784;48.490;9.688;2022-07-10T07:44:09;19.60;53.10
45044;DHT22;30784;48.490;9.688;2022-07-10T07:46:34;19.60;53.10
45044;DHT22;30784;48.490;9.688;2022-07-10T07:49:00;19.60;53.10
45044;DHT22;30784;48.490;9.688;2022-07-10T07:51:26;19.70;52.90
45044;DHT22;30784;48.490;9.688;2022-07-10T07:53:51;19.80;53.00
45044;DHT22;30784;48.490;9.688;2022-07-10T07:56:17;19.80;52.70
45044;DHT22;30784;48.490;9.688;2022-07-10T07:58:42;19.80;52.40
45044;DHT22;30784;48.490;9.688;2022-07-10T08:01:08;19.90;52.30
45044;DHT22;30784;48.490;9.688;2022-07-10T08:03:34;19.90;52.20
45044;DHT22;30784;48.490;9.688;2022-07-10T08:06:00;19.90;52.10
45044;DHT22;30784;48.490;9.688;2022-07-10T08:08:26;19.90;52.10
45044;DHT22;30784;48.490;9.688;2022-07-10T08:10:52;19.80;51.20
45044;DHT22;30784;48.490;9.688;2022-07-10T08:13:17;19.90;51.40
45044;DHT22;30784;48.490;9.688;2022-07-10T08:15:43;19.80;51.00
45044;DHT22;30784;48.490;9.688;2022-07-10T08:18:09;19.90;51.10
45044;DHT22;30784;48.490;9.688;2022-07-10T08:20:34;19.90;51.30
45044;DHT22;30784;48.490;9.688;2022-07-10T08:23:00;19.90;50.90
45044;DHT22;30784;48.490;9.688;2022-07-10T08:25:26;19.90;50.50
45044;DHT22;30784;48.490;9.688;2022-07-10T08:27:52;19.90;50.20
45044;DHT22;30784;48.490;9.688;2022-07-10T08:30:18;19.90;50.10
45044;DHT22;30784;48.490;9.688;2022-07-10T08:32:43;20.00;50.20
45044;DHT22;30784;48.490;9.688;2022-07-10T08:35:09;20.00;50.20
45044;DHT22;30784;48.490;9.688;2022-07-10T08:37:42;20.00;49.90
45044;DHT22;30784;48.490;9.688;2022-07-10T08:40:09;20.10;49.90
45044;DHT22;30784;48.490;9.688;2022-07-10T08:42:35;20.10;49.60
45044;DHT22;30784;48.490;9.688;2022-07-10T08:45:01;20.10;49.80
45044;DHT22;30784;48.490;9.688;2022-07-10T08:47:27;20.20;49.50
45044;DHT22;30784;48.490;9.688;2022-07-10T08:49:56;20.20;49.50
45044;DHT22;30784;48.490;9.688;2022-07-10T08:52:43;20.30;49.30
45044;DHT22;30784;48.490;9.688;2022-07-10T08:55:13;20.30;49.70
45044;DHT22;30784;48.490;9.688;2022-07-10T08:57:40;20.40;49.30
45044;DHT22;30784;48.490;9.688;2022-07-10T09:00:06;20.50;49.00
45044;DHT22;30784;48.490;9.688;2022-07-10T09:02:32;20.40;48.90
45044;DHT22;30784;48.490;9.688;2022-07-10T09:04:58;20.50;48.90
45044;DHT22;30784;48.490;9.688;2022-07-10T09:07:24;20.50;48.60
45044;DHT22;30784;48.490;9.688;2022-07-10T09:09:59;20.50;48.50
45044;DHT22;30784;48.490;9.688;2022-07-10T09:12:54;20.60;48.30
45044;DHT22;30784;48.490;9.688;2022-07-10T09:15:22;20.60;48.00
45044;DHT22;30784;48.490;9.688;2022-07-10T09:17:59;20.70;46.80
45044;DHT22;30784;48.490;9.688;2022-07-10T09:20:30;20.70;47.40
45044;DHT22;30784;48.490;9.688;2022-07-10T09:23:00;20.80;47.10
45044;DHT22;30784;48.490;9.688;2022-07-10T09:25:34;20.80;47.00
45044;DHT22;30784;48.490;9.688;2022-07-10T09:28:00;20.90;46.60
45044;DHT22;30784;48.490;9.688;2022-07-10T09:30:40;20.90;46.90
45044;DHT22;30784;48.490;9.688;2022-07-10T09:33:30;21.00;47.70
45044;DHT22;30784;48.490;9.688;2022-07-10T09:38:48;21.20;46.30
45044;DHT22;30784;48.490;9.688;2022-07-10T09:41:16;21.40;47.00
45044;DHT22;30784;48.490;9.688;2022-07-10T09:46:11;21.70;45.50
45044;DHT22;30784;48.490;9.688;2022-07-10T09:48:37;21.80;45.20
45044;DHT22;30784;48.490;9.688;2022-07-10T09:51:05;22.00;44.90
45044;DHT22;30784;48.490;9.688;2022-07-10T09:53:33;22.10;44.90
45044;DHT22;30784;48.490;9.688;2022-07-10T09:56:01;22.20;44.60
45044;DHT22;30784;48.490;9.688;2022-07-10T09:58:32;22.20;44.00
45044;DHT22;30784;48.490;9.688;2022-07-10T10:00:58;22.30;44.10
45044;DHT22;30784;48.490;9.688;2022-07-10T10:03:26;22.40;43.80
45044;DHT22;30784;48.490;9.688;2022-07-10T10:08:19;22.50;42.80
45044;DHT22;30784;48.490;9.688;2022-07-10T10:10:49;22.60;43.20
45044;DHT22;30784;48.490;9.688;2022-07-10T10:13:23;22.80;42.90
45044;DHT22;30784;48.490;9.688;2022-07-10T10:18:20;23.10;41.60
45044;DHT22;30784;48.490;9.688;2022-07-10T10:20:47;23.30;41.40
45044;DHT22;30784;48.490;9.688;2022-07-10T10:23:15;23.30;40.70
45044;DHT22;30784;48.490;9.688;2022-07-10T10:25:47;23.40;40.70
45044;DHT22;30784;48.490;9.688;2022-07-10T10:28:13;23.50;40.80
45044;DHT22;30784;48.490;9.688;2022-07-10T10:30:41;23.60;40.80
45044;DHT22;30784;48.490;9.688;2022-07-10T10:36:06;23.80;41.00
45044;DHT22;30784;48.490;9.688;2022-07-10T10:41:30;24.10;40.30
45044;DHT22;30784;48.490;9.688;2022-07-10T10:46:34;24.30;39.40
45044;DHT22;30784;48.490;9.688;2022-07-10T10:49:07;24.40;38.20
45044;DHT22;30784;48.490;9.688;2022-07-10T10:54:20;24.60;38.60
45044;DHT22;30784;48.490;9.688;2022-07-10T10:57:15;24.70;37.50
45044;DHT22;30784;48.490;9.688;2022-07-10T10:59:45;24.80;37.60
45044;DHT22;30784;48.490;9.688;2022-07-10T11:02:29;24.90;36.30
45044;DHT22;30784;48.490;9.688;2022-07-10T11:07:56;25.20;36.80
45044;DHT22;30784;48.490;9.688;2022-07-10T11:10:30;25.30;36.30
45044;DHT22;30784;48.490;9.688;2022-07-10T11:13:06;25.30;35.10
45044;DHT22;30784;48.490;9.688;2022-07-10T11:15:36;25.30;35.20
45044;DHT22;30784;48.490;9.688;2022-07-10T11:18:07;25.30;34.70
45044;DHT22;30784;48.490;9.688;2022-07-10T11:26:07;25.40;34.40
45044;DHT22;30784;48.490;9.688;2022-07-10T11:28:55;25.50;34.70
45044;DHT22;30784;48.490;9.688;2022-07-10T11:31:25;25.50;34.20
45044;DHT22;30784;48.490;9.688;2022-07-10T11:33:55;25.50;33.60
45044;DHT22;30784;48.490;9.688;2022-07-10T11:36:24;25.50;33.20
45044;DHT22;30784;48.490;9.688;2022-07-10T11:38:57;25.40;33.30
45044;DHT22;30784;48.490;9.688;2022-07-10T11:41:24;25.40;33.30
45044;DHT22;30784;48.490;9.688;2022-07-10T11:43:54;25.30;33.40
45044;DHT22;30784;48.490;9.688;2022-07-10T11:46:22;25.30;33.60
45044;DHT22;30784;48.490;9.688;2022-07-10T11:48:49;25.30;32.80
45044;DHT22;30784;48.490;9.688;2022-07-10T11:54:07;25.20;32.40
45044;DHT22;30784;48.490;9.688;2022-07-10T11:56:37;25.20;33.00
45044;DHT22;30784;48.490;9.688;2022-07-10T11:59:11;25.20;32.50
45044;DHT22;30784;48.490;9.688;2022-07-10T12:01:48;25.10;32.40
45044;DHT22;30784;48.490;9.688;2022-07-10T12:04:18;25.00;32.60
45044;DHT22;30784;48.490;9.688;2022-07-10T12:06:45;25.00;32.20
45044;DHT22;30784;48.490;9.688;2022-07-10T12:09:16;24.90;32.40
45044;DHT22;30784;48.490;9.688;2022-07-10T12:11:44;24.80;32.50
45044;DHT22;30784;48.490;9.688;2022-07-10T12:14:22;24.70;32.40
45044;DHT22;30784;48.490;9.688;2022-07-10T12:16:53;24.60;32.90
45044;DHT22;30784;48.490;9.688;2022-07-10T12:19:24;24.50;32.60
45044;DHT22;30784;48.490;9.688;2022-07-10T12:21:51;24.40;32.40
45044;DHT22;30784;48.490;9.688;2022-07-10T12:24:18;24.30;32.90
45044;DHT22;30784;48.490;9.688;2022-07-10T12:26:45;24.30;32.80
45044;DHT22;30784;48.490;9.688;2022-07-10T12:29:25;24.20;32.20
45044;DHT22;30784;48.490;9.688;2022-07-10T12:31:56;24.10;32.40
45044;DHT22;30784;48.490;9.688;2022-07-10T12:34:41;24.10;32.40
45044;DHT22;30784;48.490;9.688;2022-07-10T12:37:13;24.00;32.50
45044;DHT22;30784;48.490;9.688;2022-07-10T12:39:49;24.00;32.30
45044;DHT22;30784;48.490;9.688;2022-07-10T12:42:31;24.00;32.40
45044;DHT22;30784;48.490;9.688;2022-07-10T12:45:10;24.00;32.40
45044;DHT22;30784;48.490;9.688;2022-07-10T12:47:48;24.00;32.80
45044;DHT22;30784;48.490;9.688;2022-07-10T12:50:15;24.00;32.60
45044;DHT22;30784;48.490;9.688;2022-07-10T12:52:45;24.00;32.90
45044;DHT22;30784;48.490;9.688;2022-07-10T12:58:08;23.90;32.50
45044;DHT22;30784;48.490;9.688;2022-07-10T13:00:45;23.90;32.80
45044;DHT22;30784;48.490;9.688;2022-07-10T13:03:18;23.90;32.70
45044;DHT22;30784;48.490;9.688;2022-07-10T13:05:44;23.90;32.80
45044;DHT22;30784;48.490;9.688;2022-07-10T13:08:15;23.90;32.70
45044;DHT22;30784;48.490;9.688;2022-07-10T13:10:54;23.80;32.80
45044;DHT22;30784;48.490;9.688;2022-07-10T13:13:20;23.80;32.50
45044;DHT22;30784;48.490;9.688;2022-07-10T13:15:47;23.80;32.70
45044;DHT22;30784;48.490;9.688;2022-07-10T13:18:19;23.80;33.00
45044;DHT22;30784;48.490;9.688;2022-07-10T13:20:47;23.80;33.00
45044;DHT22;30784;48.490;9.688;2022-07-10T13:23:14;23.70;32.90
45044;DHT22;30784;48.490;9.688;2022-07-10T13:25:40;23.70;33.10
45044;DHT22;30784;48.490;9.688;2022-07-10T13:28:06;23.70;33.20
45044;DHT22;30784;48.490;9.688;2022-07-10T13:30:35;23.70;33.40
45044;DHT22;30784;48.490;9.688;2022-07-10T13:33:01;23.60;33.30
45044;DHT22;30784;48.490;9.688;2022-07-10T13:35:31;23.60;33.00
45044;DHT22;30784;48.490;9.688;2022-07-10T13:37:58;23.60;33.00
45044;DHT22;30784;48.490;9.688;2022-07-10T13:40:28;23.50;33.00
45044;DHT22;30784;48.490;9.688;2022-07-10T13:42:54;23.50;33.00
45044;DHT22;30784;48.490;9.688;2022-07-10T13:45:21;23.50;33.00
45044;DHT22;30784;48.490;9.688;2022-07-10T13:47:48;23.40;33.10
45044;DHT22;30784;48.490;9.688;2022-07-10T13:50:14;23.40;33.20
45044;DHT22;30784;48.490;9.688;2022-07-10T13:52:40;23.40;33.40
45044;DHT22;30784;48.490;9.688;2022-07-10T13:55:05;23.40;33.80
45044;DHT22;30784;48.490;9.688;2022-07-10T13:57:34;23.40;33.80
45044;DHT22;30784;48.490;9.688;2022-07-10T14:00:00;23.40;33.90
45044;DHT22;30784;48.490;9.688;2022-07-10T14:02:26;23.40;33.70
45044;DHT22;30784;48.490;9.688;2022-07-10T14:04:51;23.40;33.80
45044;DHT22;30784;48.490;9.688;2022-07-10T14:07:17;23.40;33.70
45044;DHT22;30784;48.490;9.688;2022-07-10T14:09:43;23.40;33.70
45044;DHT22;30784;48.490;9.688;2022-07-10T14:12:09;23.40;33.80
45044;DHT22;30784;48.490;9.688;2022-07-10T14:14:34;23.40;34.10
45044;DHT22;30784;48.490;9.688;2022-07-10T14:17:00;23.40;33.60
45044;DHT22;30784;48.490;9.688;2022-07-10T14:19:25;23.40;33.60
45044;DHT22;30784;48.490;9.688;2022-07-10T14:21:51;23.40;33.70
45044;DHT22;30784;48.490;9.688;2022-07-10T14:24:16;23.30;33.80
45044;DHT22;30784;48.490;9.688;2022-07-10T14:26:42;23.40;33.50
45044;DHT22;30784;48.490;9.688;2022-07-10T14:29:08;23.40;33.40
45044;DHT22;30784;48.490;9.688;2022-07-10T14:31:33;23.30;33.40
45044;DHT22;30784;48.490;9.688;2022-07-10T14:34:00;23.40;33.30
45044;DHT22;30784;48.490;9.688;2022-07-10T14:36:25;23.40;33.50
45044;DHT22;30784;48.490;9.688;2022-07-10T14:38:55;23.40;33.80
45044;DHT22;30784;48.490;9.688;2022-07-10T14:41:24;23.50;33.10
45044;DHT22;30784;48.490;9.688;2022-07-10T14:43:50;23.50;32.90
45044;DHT22;30784;48.490;9.688;2022-07-10T14:46:16;23.60;33.20
45044;DHT22;30784;48.490;9.688;2022-07-10T14:48:42;23.70;33.60
45044;DHT22;30784;48.490;9.688;2022-07-10T14:51:08;23.80;33.60
45044;DHT22;30784;48.490;9.688;2022-07-10T14:53:34;23.90;33.60
45044;DHT22;30784;48.490;9.688;2022-07-10T14:56:04;24.10;33.10
45044;DHT22;30784;48.490;9.688;2022-07-10T14:58:33;24.20;32.80
45044;DHT22;30784;48.490;9.688;2022-07-10T15:00:59;24.30;32.60
45044;DHT22;30784;48.490;9.688;2022-07-10T15:03:26;24.40;33.00
45044;DHT22;30784;48.490;9.688;2022-07-10T15:05:52;24.60;32.30
45044;DHT22;30784;48.490;9.688;2022-07-10T15:08:22;24.80;32.10
45044;DHT22;30784;48.490;9.688;2022-07-10T15:10:47;24.90;32.50
45044;DHT22;30784;48.490;9.688;2022-07-10T15:13:13;25.00;31.60
45044;DHT22;30784;48.490;9.688;2022-07-10T15:15:39;25.10;31.60
45044;DHT22;30784;48.490;9.688;2022-07-10T15:18:05;25.30;31.80
45044;DHT22;30784;48.490;9.688;2022-07-10T15:20:31;25.40;31.50
45044;DHT22;30784;48.490;9.688;2022-07-10T15:22:57;25.50;31.70
45044;DHT22;30784;48.490;9.688;2022-07-10T15:25:23;25.60;31.50
45044;DHT22;30784;48.490;9.688;2022-07-10T15:27:50;25.70;31.30
45044;DHT22;30784;48.490;9.688;2022-07-10T15:30:16;25.70;31.00
45044;DHT22;30784;48.490;9.688;2022-07-10T15:32:42;25.80;30.80
45044;DHT22;30784;48.490;9.688;2022-07-10T15:35:08;25.90;30.70
45044;DHT22;30784;48.490;9.688;2022-07-10T15:37:34;25.90;30.60
45044;DHT22;30784;48.490;9.688;2022-07-10T15:40:00;25.90;30.20
45044;DHT22;30784;48.490;9.688;2022-07-10T15:42:25;26.00;29.90
45044;DHT22;30784;48.490;9.688;2022-07-10T15:44:52;26.00;29.90
45044;DHT22;30784;48.490;9.688;2022-07-10T15:47:18;26.00;29.90
45044;DHT22;30784;48.490;9.688;2022-07-10T15:49:43;26.00;29.80
45044;DHT22;30784;48.490;9.688;2022-07-10T15:52:09;26.00;29.60
45044;DHT22;30784;48.490;9.688;2022-07-10T15:54:35;26.00;29.80
45044;DHT22;30784;48.490;9.688;2022-07-10T15:57:01;25.90;29.60
45044;DHT22;30784;48.490;9.688;2022-07-10T15:59:28;25.80;29.40
45044;DHT22;30784;48.490;9.688;2022-07-10T16:01:55;25.70;29.30
45044;DHT22;30784;48.490;9.688;2022-07-10T16:04:22;25.60;29.50
45044;DHT22;30784;48.490;9.688;2022-07-10T16:06:48;25.50;29.60